sensor_id;sensor_type;location;lat;lon;timestamp;P1;durP1;ratioP1;P2;durP2;ratioP2
3718;SDS011;1875;52.492;6.860;2023-05-10T00:00:15;17.20;;;14.07;;
3718;SDS011;1875;52.492;6.860;2023-05-10T00:02:44;16.63;;;13.97;;
3718;SDS011;1875;52.492;6.860;2023-05-10T00:05:11;16.43;;;13.03;;
3718;SDS011;1875;52.492;6.860;2023-05-10T00:07:39;18.33;;;15.33;;
3718;SDS011;1875;52.492;6.860;2023-05-10T00:10:10;19.40;;;15.20;;
3718;SDS011;1875;52.492;6.860;2023-05-10T00:12:38;21.73;;;15.33;;
3718;SDS011;1875;52.492;6.860;2023-05-10T00:15:08;19.80;;;16.63;;
3718;SDS011;1875;52.492;6.860;2023-05-10T00:17:36;19.37;;;17.00;;
3718;SDS011;1875;52.492;6.860;2023-05-10T00:20:04;19.70;;;15.83;;
3718;SDS011;1875;52.492;6.860;2023-05-10T00:22:33;20.50;;;16.60;;
3718;SDS011;1875;52.492;6.860;2023-05-10T00:25:00;20.70;;;17.27;;
3718;SDS011;1875;52.492;6.860;2023-05-10T00:27:28;21.97;;;17.33;;
3718;SDS011;1875;52.492;6.860;2023-05-10T00:29:56;21.63;;;17.33;;
3718;SDS011;1875;52.492;6.860;2023-05-10T00:32:25;21.47;;;17.93;;
3718;SDS011;1875;52.492;6.860;2023-05-10T00:34:53;19.17;;;16.27;;
3718;SDS011;1875;52.492;6.860;2023-05-10T00:37:21;19.73;;;16.93;;
3718;SDS011;1875;52.492;6.860;2023-05-10T00:39:49;20.87;;;16.70;;
3718;SDS011;1875;52.492;6.860;2023-05-10T00:42:16;22.40;;;17.53;;
3718;SDS011;1875;52.492;6.860;2023-05-10T00:44:44;22.97;;;18.53;;
3718;SDS011;1875;52.492;6.860;2023-05-10T00:47:12;23.17;;;18.80;;
3718;SDS011;1875;52.492;6.860;2023-05-10T00:49:42;23.60;;;19.10;;
3718;SDS011;1875;52.492;6.860;2023-05-10T00:52:09;25.27;;;19.17;;
3718;SDS011;1875;52.492;6.860;2023-05-10T00:54:37;26.77;;;19.60;;
3718;SDS011;1875;52.492;6.860;2023-05-10T00:57:05;25.67;;;19.37;;
3718;SDS011;1875;52.492;6.860;2023-05-10T00:59:33;25.13;;;18.93;;
3718;SDS011;1875;52.492;6.860;2023-05-10T01:02:00;24.80;;;18.97;;
3718;SDS011;1875;52.492;6.860;2023-05-10T01:04:29;25.43;;;19.90;;
3718;SDS011;1875;52.492;6.860;2023-05-10T01:06:58;26.33;;;19.37;;
3718;SDS011;1875;52.492;6.860;2023-05-10T01:09:27;26.07;;;19.50;;
3718;SDS011;1875;52.492;6.860;2023-05-10T01:11:55;27.33;;;20.40;;
3718;SDS011;1875;52.492;6.860;2023-05-10T01:14:24;26.60;;;19.73;;
3718;SDS011;1875;52.492;6.860;2023-05-10T01:16:52;31.93;;;21.60;;
3718;SDS011;1875;52.492;6.860;2023-05-10T01:19:22;29.73;;;21.23;;
3718;SDS011;1875;52.492;6.860;2023-05-10T01:21:53;28.47;;;20.73;;
3718;SDS011;1875;52.492;6.860;2023-05-10T01:24:38;28.43;;;21.33;;
3718;SDS011;1875;52.492;6.860;2023-05-10T01:33:26;30.60;;;22.70;;
3718;SDS011;1875;52.492;6.860;2023-05-10T01:35:59;32.33;;;22.50;;
3718;SDS011;1875;52.492;6.860;2023-05-10T01:38:33;33.70;;;23.07;;
3718;SDS011;1875;52.492;6.860;2023-05-10T01:41:08;29.93;;;21.40;;
3718;SDS011;1875;52.492;6.860;2023-05-10T01:43:43;30.80;;;22.07;;
3718;SDS011;1875;52.492;6.860;2023-05-10T01:46:14;32.43;;;23.43;;
3718;SDS011;1875;52.492;6.860;2023-05-10T01:48:47;31.53;;;21.33;;
3718;SDS011;1875;52.492;6.860;2023-05-10T01:51:16;32.50;;;22.73;;
3718;SDS011;1875;52.492;6.860;2023-05-10T01:53:46;35.13;;;22.30;;
3718;SDS011;1875;52.492;6.860;2023-05-10T01:56:15;34.33;;;23.17;;
3718;SDS011;1875;52.492;6.860;2023-05-10T01:58:43;41.00;;;22.00;;
3718;SDS011;1875;52.492;6.860;2023-05-10T02:01:12;33.90;;;22.63;;
3718;SDS011;1875;52.492;6.860;2023-05-10T02:03:40;33.93;;;22.27;;
3718;SDS011;1875;52.492;6.860;2023-05-10T02:06:11;34.20;;;21.23;;
3718;SDS011;1875;52.492;6.860;2023-05-10T02:08:42;37.10;;;23.40;;
3718;SDS011;1875;52.492;6.860;2023-05-10T02:11:12;36.30;;;24.77;;
3718;SDS011;1875;52.492;6.860;2023-05-10T02:13:40;33.87;;;22.77;;
3718;SDS011;1875;52.492;6.860;2023-05-10T02:16:09;36.83;;;23.90;;
3718;SDS011;1875;52.492;6.860;2023-05-10T02:18:37;37.30;;;23.20;;
3718;SDS011;1875;52.492;6.860;2023-05-10T02:21:07;36.63;;;22.40;;
3718;SDS011;1875;52.492;6.860;2023-05-10T02:23:37;34.00;;;22.00;;
3718;SDS011;1875;52.492;6.860;2023-05-10T02:26:05;36.00;;;23.20;;
3718;SDS011;1875;52.492;6.860;2023-05-10T02:28:33;38.90;;;22.67;;
3718;SDS011;1875;52.492;6.860;2023-05-10T02:31:04;37.53;;;22.67;;
3718;SDS011;1875;52.492;6.860;2023-05-10T02:33:32;35.33;;;22.30;;
3718;SDS011;1875;52.492;6.860;2023-05-10T02:36:01;35.60;;;22.53;;
3718;SDS011;1875;52.492;6.860;2023-05-10T02:38:30;36.00;;;22.33;;
3718;SDS011;1875;52.492;6.860;2023-05-10T02:41:00;36.13;;;22.90;;
3718;SDS011;1875;52.492;6.860;2023-05-10T02:43:29;39.40;;;22.20;;
3718;SDS011;1875;52.492;6.860;2023-05-10T02:45:57;38.43;;;23.33;;
3718;SDS011;1875;52.492;6.860;2023-05-10T02:48:25;41.30;;;23.77;;
3718;SDS011;1875;52.492;6.860;2023-05-10T02:50:53;39.60;;;23.30;;
3718;SDS011;1875;52.492;6.860;2023-05-10T02:53:22;42.00;;;24.97;;
3718;SDS011;1875;52.492;6.860;2023-05-10T02:55:52;40.83;;;24.50;;
3718;SDS011;1875;52.492;6.860;2023-05-10T02:58:26;42.97;;;23.53;;
3718;SDS011;1875;52.492;6.860;2023-05-10T03:00:54;38.60;;;22.50;;
3718;SDS011;1875;52.492;6.860;2023-05-10T03:03:22;37.17;;;22.20;;
3718;SDS011;1875;52.492;6.860;2023-05-10T03:05:49;41.77;;;23.30;;
3718;SDS011;1875;52.492;6.860;2023-05-10T03:08:19;37.50;;;23.13;;
3718;SDS011;1875;52.492;6.860;2023-05-10T03:10:50;39.47;;;22.33;;
3718;SDS011;1875;52.492;6.860;2023-05-10T03:13:27;47.10;;;25.33;;
3718;SDS011;1875;52.492;6.860;2023-05-10T03:15:58;42.50;;;23.73;;
3718;SDS011;1875;52.492;6.860;2023-05-10T03:18:29;43.03;;;23.73;;
3718;SDS011;1875;52.492;6.860;2023-05-10T03:21:04;41.00;;;23.63;;
3718;SDS011;1875;52.492;6.860;2023-05-10T03:23:38;47.07;;;25.40;;
3718;SDS011;1875;52.492;6.860;2023-05-10T03:26:08;45.00;;;25.37;;
3718;SDS011;1875;52.492;6.860;2023-05-10T03:28:37;52.23;;;26.77;;
3718;SDS011;1875;52.492;6.860;2023-05-10T03:31:06;48.63;;;26.83;;
3718;SDS011;1875;52.492;6.860;2023-05-10T03:33:34;46.47;;;25.27;;
3718;SDS011;1875;52.492;6.860;2023-05-10T03:36:02;46.70;;;25.43;;
3718;SDS011;1875;52.492;6.860;2023-05-10T03:38:30;45.97;;;25.93;;
3718;SDS011;1875;52.492;6.860;2023-05-10T03:40:58;49.57;;;25.90;;
3718;SDS011;1875;52.492;6.860;2023-05-10T03:43:26;51.77;;;28.23;;
3718;SDS011;1875;52.492;6.860;2023-05-10T03:45:55;50.37;;;26.40;;
3718;SDS011;1875;52.492;6.860;2023-05-10T03:48:22;52.77;;;27.53;;
3718;SDS011;1875;52.492;6.860;2023-05-10T03:50:50;55.90;;;28.13;;
3718;SDS011;1875;52.492;6.860;2023-05-10T03:53:18;53.97;;;27.80;;
3718;SDS011;1875;52.492;6.860;2023-05-10T03:55:46;51.67;;;28.60;;
3718;SDS011;1875;52.492;6.860;2023-05-10T03:58:13;52.97;;;29.50;;
3718;SDS011;1875;52.492;6.860;2023-05-10T04:00:41;52.33;;;26.17;;
3718;SDS011;1875;52.492;6.860;2023-05-10T04:03:12;49.50;;;26.87;;
3718;SDS011;1875;52.492;6.860;2023-05-10T04:05:41;53.20;;;25.93;;
3718;SDS011;1875;52.492;6.860;2023-05-10T04:08:08;53.60;;;27.33;;
3718;SDS011;1875;52.492;6.860;2023-05-10T04:10:36;48.23;;;26.00;;
3718;SDS011;1875;52.492;6.860;2023-05-10T04:13:04;48.93;;;24.00;;
3718;SDS011;1875;52.492;6.860;2023-05-10T04:15:32;43.07;;;24.47;;
3718;SDS011;1875;52.492;6.860;2023-05-10T04:17:59;47.10;;;24.83;;
3718;SDS011;1875;52.492;6.860;2023-05-10T04:20:29;46.70;;;24.13;;
3718;SDS011;1875;52.492;6.860;2023-05-10T04:22:56;47.70;;;24.73;;
3718;SDS011;1875;52.492;6.860;2023-05-10T04:25:24;50.53;;;25.03;;
3718;SDS011;1875;52.492;6.860;2023-05-10T04:27:52;52.57;;;25.03;;
3718;SDS011;1875;52.492;6.860;2023-05-10T04:30:19;53.87;;;26.17;;
3718;SDS011;1875;52.492;6.860;2023-05-10T04:32:47;51.23;;;25.23;;
3718;SDS011;1875;52.492;6.860;2023-05-10T04:35:15;55.83;;;25.10;;
3718;SDS011;1875;52.492;6.860;2023-05-10T04:37:44;52.93;;;25.67;;
3718;SDS011;1875;52.492;6.860;2023-05-10T04:40:12;45.53;;;23.63;;
3718;SDS011;1875;52.492;6.860;2023-05-10T04:42:40;50.10;;;23.03;;
3718;SDS011;1875;52.492;6.860;2023-05-10T04:45:08;51.87;;;24.47;;
3718;SDS011;1875;52.492;6.860;2023-05-10T04:47:37;47.10;;;23.03;;
3718;SDS011;1875;52.492;6.860;2023-05-10T04:50:05;53.40;;;23.20;;
3718;SDS011;1875;52.492;6.860;2023-05-10T04:52:34;44.83;;;22.83;;
3718;SDS011;1875;52.492;6.860;2023-05-10T04:55:04;47.10;;;23.57;;
3718;SDS011;1875;52.492;6.860;2023-05-10T04:57:33;46.97;;;24.00;;
3718;SDS011;1875;52.492;6.860;2023-05-10T05:00:01;52.20;;;25.13;;
3718;SDS011;1875;52.492;6.860;2023-05-10T05:02:29;53.10;;;24.93;;
3718;SDS011;1875;52.492;6.860;2023-05-10T05:04:57;51.40;;;24.83;;
3718;SDS011;1875;52.492;6.860;2023-05-10T05:07:24;52.37;;;26.03;;
3718;SDS011;1875;52.492;6.860;2023-05-10T05:09:52;56.00;;;26.60;;
3718;SDS011;1875;52.492;6.860;2023-05-10T05:12:21;60.10;;;29.07;;
3718;SDS011;1875;52.492;6.860;2023-05-10T05:14:49;65.97;;;29.97;;
3718;SDS011;1875;52.492;6.860;2023-05-10T05:17:17;66.47;;;30.00;;
3718;SDS011;1875;52.492;6.860;2023-05-10T05:19:44;68.17;;;30.73;;
3718;SDS011;1875;52.492;6.860;2023-05-10T05:22:12;71.47;;;32.03;;
3718;SDS011;1875;52.492;6.860;2023-05-10T05:24:42;70.83;;;30.70;;
3718;SDS011;1875;52.492;6.860;2023-05-10T05:27:09;69.33;;;31.03;;
3718;SDS011;1875;52.492;6.860;2023-05-10T05:29:38;73.10;;;32.27;;
3718;SDS011;1875;52.492;6.860;2023-05-10T05:32:06;72.17;;;31.93;;
3718;SDS011;1875;52.492;6.860;2023-05-10T05:34:34;68.83;;;33.10;;
3718;SDS011;1875;52.492;6.860;2023-05-10T05:37:02;68.77;;;31.60;;
3718;SDS011;1875;52.492;6.860;2023-05-10T05:39:30;63.50;;;28.60;;
3718;SDS011;1875;52.492;6.860;2023-05-10T05:41:57;53.03;;;26.73;;
3718;SDS011;1875;52.492;6.860;2023-05-10T05:44:25;55.07;;;25.23;;
3718;SDS011;1875;52.492;6.860;2023-05-10T05:46:56;53.70;;;25.40;;
3718;SDS011;1875;52.492;6.860;2023-05-10T05:49:24;61.07;;;27.23;;
3718;SDS011;1875;52.492;6.860;2023-05-10T05:51:51;59.47;;;26.93;;
3718;SDS011;1875;52.492;6.860;2023-05-10T05:54:19;55.60;;;23.87;;
3718;SDS011;1875;52.492;6.860;2023-05-10T05:56:47;51.67;;;25.20;;
3718;SDS011;1875;52.492;6.860;2023-05-10T05:59:15;52.47;;;25.60;;
3718;SDS011;1875;52.492;6.860;2023-05-10T06:01:43;51.93;;;24.70;;
3718;SDS011;1875;52.492;6.860;2023-05-10T06:04:12;53.00;;;25.20;;
3718;SDS011;1875;52.492;6.860;2023-05-10T06:06:40;45.50;;;23.23;;
3718;SDS011;1875;52.492;6.860;2023-05-10T06:09:08;48.83;;;22.17;;
3718;SDS011;1875;52.492;6.860;2023-05-10T06:11:36;49.63;;;23.70;;
3718;SDS011;1875;52.492;6.860;2023-05-10T06:14:04;50.83;;;24.73;;
3718;SDS011;1875;52.492;6.860;2023-05-10T06:16:33;50.30;;;23.83;;
3718;SDS011;1875;52.492;6.860;2023-05-10T06:19:01;41.53;;;21.87;;
3718;SDS011;1875;52.492;6.860;2023-05-10T06:21:31;45.70;;;21.47;;
3718;SDS011;1875;52.492;6.860;2023-05-10T06:23:58;40.63;;;21.47;;
3718;SDS011;1875;52.492;6.860;2023-05-10T06:26:26;45.50;;;23.17;;
3718;SDS011;1875;52.492;6.860;2023-05-10T06:28:54;43.40;;;22.90;;
3718;SDS011;1875;52.492;6.860;2023-05-10T06:31:22;44.23;;;21.67;;
3718;SDS011;1875;52.492;6.860;2023-05-10T06:33:49;45.40;;;21.67;;
3718;SDS011;1875;52.492;6.860;2023-05-10T06:36:19;44.80;;;22.60;;
3718;SDS011;1875;52.492;6.860;2023-05-10T06:38:49;37.43;;;21.27;;
3718;SDS011;1875;52.492;6.860;2023-05-10T06:41:17;40.97;;;21.23;;
3718;SDS011;1875;52.492;6.860;2023-05-10T06:43:45;36.60;;;20.17;;
3718;SDS011;1875;52.492;6.860;2023-05-10T06:46:12;36.23;;;20.43;;
3718;SDS011;1875;52.492;6.860;2023-05-10T06:48:40;31.37;;;18.70;;
3718;SDS011;1875;52.492;6.860;2023-05-10T06:51:08;32.73;;;19.53;;
3718;SDS011;1875;52.492;6.860;2023-05-10T06:53:35;31.87;;;19.27;;
3718;SDS011;1875;52.492;6.860;2023-05-10T06:56:05;35.33;;;19.43;;
3718;SDS011;1875;52.492;6.860;2023-05-10T06:58:32;28.50;;;17.53;;
3718;SDS011;1875;52.492;6.860;2023-05-10T07:01:03;30.63;;;17.60;;
3718;SDS011;1875;52.492;6.860;2023-05-10T07:03:31;27.80;;;17.63;;
3718;SDS011;1875;52.492;6.860;2023-05-10T07:06:00;27.27;;;18.03;;
3718;SDS011;1875;52.492;6.860;2023-05-10T07:08:29;30.43;;;18.40;;
3718;SDS011;1875;52.492;6.860;2023-05-10T07:10:59;32.43;;;19.17;;
3718;SDS011;1875;52.492;6.860;2023-05-10T07:13:29;32.63;;;18.87;;
3718;SDS011;1875;52.492;6.860;2023-05-10T07:15:57;33.33;;;19.40;;
3718;SDS011;1875;52.492;6.860;2023-05-10T07:18:25;32.70;;;19.23;;
3718;SDS011;1875;52.492;6.860;2023-05-10T07:20:53;33.77;;;20.17;;
3718;SDS011;1875;52.492;6.860;2023-05-10T07:23:21;36.37;;;19.93;;
3718;SDS011;1875;52.492;6.860;2023-05-10T07:25:49;29.73;;;18.83;;
3718;SDS011;1875;52.492;6.860;2023-05-10T07:28:18;32.37;;;20.27;;
3718;SDS011;1875;52.492;6.860;2023-05-10T07:30:47;31.30;;;19.63;;
3718;SDS011;1875;52.492;6.860;2023-05-10T07:33:15;32.13;;;20.23;;
3718;SDS011;1875;52.492;6.860;2023-05-10T07:35:43;32.17;;;21.00;;
3718;SDS011;1875;52.492;6.860;2023-05-10T07:38:11;33.63;;;21.03;;
3718;SDS011;1875;52.492;6.860;2023-05-10T07:40:38;32.17;;;20.93;;
3718;SDS011;1875;52.492;6.860;2023-05-10T07:43:06;32.07;;;21.27;;
3718;SDS011;1875;52.492;6.860;2023-05-10T07:45:34;31.70;;;21.00;;
3718;SDS011;1875;52.492;6.860;2023-05-10T07:48:03;31.97;;;21.70;;
3718;SDS011;1875;52.492;6.860;2023-05-10T07:50:31;36.90;;;21.60;;
3718;SDS011;1875;52.492;6.860;2023-05-10T07:52:59;35.43;;;20.27;;
3718;SDS011;1875;52.492;6.860;2023-05-10T07:55:27;30.90;;;19.80;;
3718;SDS011;1875;52.492;6.860;2023-05-10T07:57:55;33.50;;;20.63;;
3718;SDS011;1875;52.492;6.860;2023-05-10T08:00:22;31.13;;;22.57;;
3718;SDS011;1875;52.492;6.860;2023-05-10T08:02:50;34.67;;;20.87;;
3718;SDS011;1875;52.492;6.860;2023-05-10T08:05:20;32.33;;;20.53;;
3718;SDS011;1875;52.492;6.860;2023-05-10T08:07:48;29.80;;;19.57;;
3718;SDS011;1875;52.492;6.860;2023-05-10T08:10:16;28.80;;;17.57;;
3718;SDS011;1875;52.492;6.860;2023-05-10T08:12:43;25.60;;;18.47;;
3718;SDS011;1875;52.492;6.860;2023-05-10T08:15:11;30.43;;;18.23;;
3718;SDS011;1875;52.492;6.860;2023-05-10T08:17:39;29.00;;;18.37;;
3718;SDS011;1875;52.492;6.860;2023-05-10T08:20:07;28.37;;;17.73;;
3718;SDS011;1875;52.492;6.860;2023-05-10T08:22:36;24.03;;;16.10;;
3718;SDS011;1875;52.492;6.860;2023-05-10T08:25:04;23.40;;;15.73;;
3718;SDS011;1875;52.492;6.860;2023-05-10T08:27:33;27.87;;;15.97;;
3718;SDS011;1875;52.492;6.860;2023-05-10T08:30:01;24.70;;;14.70;;
3718;SDS011;1875;52.492;6.860;2023-05-10T08:32:28;20.00;;;14.00;;
3718;SDS011;1875;52.492;6.860;2023-05-10T08:34:56;18.73;;;13.40;;
3718;SDS011;1875;52.492;6.860;2023-05-10T08:37:24;24.27;;;12.70;;
3718;SDS011;1875;52.492;6.860;2023-05-10T08:39:53;21.20;;;14.53;;
3718;SDS011;1875;52.492;6.860;2023-05-10T08:42:21;20.13;;;13.30;;
3718;SDS011;1875;52.492;6.860;2023-05-10T08:44:49;20.03;;;12.23;;
3718;SDS011;1875;52.492;6.860;2023-05-10T08:47:18;17.40;;;11.57;;
3718;SDS011;1875;52.492;6.860;2023-05-10T08:49:46;16.30;;;11.80;;
3718;SDS011;1875;52.492;6.860;2023-05-10T08:52:15;17.97;;;10.20;;
3718;SDS011;1875;52.492;6.860;2023-05-10T08:54:44;17.97;;;10.77;;
3718;SDS011;1875;52.492;6.860;2023-05-10T08:57:13;17.33;;;11.27;;
3718;SDS011;1875;52.492;6.860;2023-05-10T08:59:40;20.77;;;11.13;;
3718;SDS011;1875;52.492;6.860;2023-05-10T09:02:08;17.57;;;11.30;;
3718;SDS011;1875;52.492;6.860;2023-05-10T09:04:37;19.27;;;10.73;;
3718;SDS011;1875;52.492;6.860;2023-05-10T09:07:05;15.07;;;9.77;;
3718;SDS011;1875;52.492;6.860;2023-05-10T09:09:33;13.80;;;10.23;;
3718;SDS011;1875;52.492;6.860;2023-05-10T09:12:01;22.17;;;10.87;;
3718;SDS011;1875;52.492;6.860;2023-05-10T09:14:30;14.67;;;9.03;;
3718;SDS011;1875;52.492;6.860;2023-05-10T09:17:01;19.17;;;10.67;;
3718;SDS011;1875;52.492;6.860;2023-05-10T09:19:29;14.00;;;8.97;;
3718;SDS011;1875;52.492;6.860;2023-05-10T09:21:57;11.90;;;9.07;;
3718;SDS011;1875;52.492;6.860;2023-05-10T09:24:26;14.00;;;8.73;;
3718;SDS011;1875;52.492;6.860;2023-05-10T09:26:54;17.53;;;9.10;;
3718;SDS011;1875;52.492;6.860;2023-05-10T09:29:24;10.43;;;7.03;;
3718;SDS011;1875;52.492;6.860;2023-05-10T09:31:53;13.53;;;8.23;;
3718;SDS011;1875;52.492;6.860;2023-05-10T09:34:28;17.73;;;8.37;;
3718;SDS011;1875;52.492;6.860;2023-05-10T09:36:57;10.83;;;6.77;;
3718;SDS011;1875;52.492;6.860;2023-05-10T09:39:30;12.10;;;7.70;;
3718;SDS011;1875;52.492;6.860;2023-05-10T09:41:59;13.27;;;8.53;;
3718;SDS011;1875;52.492;6.860;2023-05-10T09:44:30;11.73;;;8.20;;
3718;SDS011;1875;52.492;6.860;2023-05-10T09:47:00;13.93;;;9.03;;
3718;SDS011;1875;52.492;6.860;2023-05-10T09:49:27;11.53;;;8.63;;
3718;SDS011;1875;52.492;6.860;2023-05-10T09:52:02;13.73;;;8.70;;
3718;SDS011;1875;52.492;6.860;2023-05-10T09:54:30;14.67;;;8.10;;
3718;SDS011;1875;52.492;6.860;2023-05-10T09:56:58;11.77;;;8.43;;
3718;SDS011;1875;52.492;6.860;2023-05-10T09:59:27;14.07;;;8.67;;
3718;SDS011;1875;52.492;6.860;2023-05-10T10:01:56;14.73;;;8.30;;
3718;SDS011;1875;52.492;6.860;2023-05-10T10:04:26;11.00;;;8.07;;
3718;SDS011;1875;52.492;6.860;2023-05-10T10:07:01;11.10;;;7.77;;
3718;SDS011;1875;52.492;6.860;2023-05-10T10:09:30;13.70;;;6.63;;
3718;SDS011;1875;52.492;6.860;2023-05-10T10:11:59;9.87;;;5.30;;
3718;SDS011;1875;52.492;6.860;2023-05-10T10:14:27;12.63;;;6.17;;
3718;SDS011;1875;52.492;6.860;2023-05-10T10:16:56;8.23;;;5.70;;
3718;SDS011;1875;52.492;6.860;2023-05-10T10:19:28;7.60;;;5.33;;
3718;SDS011;1875;52.492;6.860;2023-05-10T10:21:55;10.53;;;6.20;;
3718;SDS011;1875;52.492;6.860;2023-05-10T10:24:25;7.37;;;5.00;;
3718;SDS011;1875;52.492;6.860;2023-05-10T10:26:53;9.97;;;6.47;;
3718;SDS011;1875;52.492;6.860;2023-05-10T10:29:23;10.63;;;5.00;;
3718;SDS011;1875;52.492;6.860;2023-05-10T10:31:57;8.70;;;4.33;;
3718;SDS011;1875;52.492;6.860;2023-05-10T10:34:32;10.47;;;5.10;;
3718;SDS011;1875;52.492;6.860;2023-05-10T10:37:03;7.57;;;4.73;;
3718;SDS011;1875;52.492;6.860;2023-05-10T10:39:32;7.90;;;4.80;;
3718;SDS011;1875;52.492;6.860;2023-05-10T10:42:03;6.43;;;3.90;;
3718;SDS011;1875;52.492;6.860;2023-05-10T10:44:35;8.77;;;5.63;;
3718;SDS011;1875;52.492;6.860;2023-05-10T10:47:05;6.07;;;4.97;;
3718;SDS011;1875;52.492;6.860;2023-05-10T10:49:48;7.27;;;4.33;;
3718;SDS011;1875;52.492;6.860;2023-05-10T10:52:21;8.10;;;4.60;;
3718;SDS011;1875;52.492;6.860;2023-05-10T10:54:50;7.60;;;4.10;;
3718;SDS011;1875;52.492;6.860;2023-05-10T10:57:19;10.13;;;4.10;;
3718;SDS011;1875;52.492;6.860;2023-05-10T10:59:48;6.07;;;3.57;;
3718;SDS011;1875;52.492;6.860;2023-05-10T11:02:32;4.40;;;3.10;;
3718;SDS011;1875;52.492;6.860;2023-05-10T11:08:25;12.57;;;3.77;;
3718;SDS011;1875;52.492;6.860;2023-05-10T11:11:04;5.27;;;3.67;;
3718;SDS011;1875;52.492;6.860;2023-05-10T11:13:34;5.93;;;3.57;;
3718;SDS011;1875;52.492;6.860;2023-05-10T11:16:13;5.87;;;3.60;;
3718;SDS011;1875;52.492;6.860;2023-05-10T11:18:52;6.30;;;3.80;;
3718;SDS011;1875;52.492;6.860;2023-05-10T11:21:20;5.53;;;3.47;;
3718;SDS011;1875;52.492;6.860;2023-05-10T11:23:50;4.90;;;3.03;;
3718;SDS011;1875;52.492;6.860;2023-05-10T11:26:22;4.63;;;3.30;;
3718;SDS011;1875;52.492;6.860;2023-05-10T11:28:52;3.97;;;2.70;;
3718;SDS011;1875;52.492;6.860;2023-05-10T11:31:21;3.90;;;3.30;;
3718;SDS011;1875;52.492;6.860;2023-05-10T11:33:50;4.70;;;3.23;;
3718;SDS011;1875;52.492;6.860;2023-05-10T11:36:19;6.17;;;3.87;;
3718;SDS011;1875;52.492;6.860;2023-05-10T11:38:47;6.47;;;3.90;;
3718;SDS011;1875;52.492;6.860;2023-05-10T11:41:17;6.87;;;4.40;;
3718;SDS011;1875;52.492;6.860;2023-05-10T11:43:49;6.67;;;4.07;;
3718;SDS011;1875;52.492;6.860;2023-05-10T11:46:18;4.90;;;4.00;;
3718;SDS011;1875;52.492;6.860;2023-05-10T11:48:47;6.20;;;3.53;;
3718;SDS011;1875;52.492;6.860;2023-05-10T11:51:19;6.53;;;4.07;;
3718;SDS011;1875;52.492;6.860;2023-05-10T11:53:50;9.87;;;3.80;;
3718;SDS011;1875;52.492;6.860;2023-05-10T11:56:19;6.57;;;4.23;;
3718;SDS011;1875;52.492;6.860;2023-05-10T11:58:52;4.93;;;3.93;;
3718;SDS011;1875;52.492;6.860;2023-05-10T12:01:20;4.67;;;3.77;;
3718;SDS011;1875;52.492;6.860;2023-05-10T12:03:48;7.40;;;4.30;;
3718;SDS011;1875;52.492;6.860;2023-05-10T12:06:16;5.33;;;4.00;;
3718;SDS011;1875;52.492;6.860;2023-05-10T12:08:46;6.70;;;3.80;;
3718;SDS011;1875;52.492;6.860;2023-05-10T12:11:19;6.13;;;4.03;;
3718;SDS011;1875;52.492;6.860;2023-05-10T12:13:48;9.90;;;4.87;;
3718;SDS011;1875;52.492;6.860;2023-05-10T12:16:16;7.67;;;4.27;;
3718;SDS011;1875;52.492;6.860;2023-05-10T12:18:45;4.33;;;3.63;;
3718;SDS011;1875;52.492;6.860;2023-05-10T12:21:13;9.37;;;4.20;;
3718;SDS011;1875;52.492;6.860;2023-05-10T12:23:42;10.50;;;4.83;;
3718;SDS011;1875;52.492;6.860;2023-05-10T12:26:09;5.30;;;3.70;;
3718;SDS011;1875;52.492;6.860;2023-05-10T12:28:39;6.13;;;3.53;;
3718;SDS011;1875;52.492;6.860;2023-05-10T12:31:06;5.83;;;3.90;;
3718;SDS011;1875;52.492;6.860;2023-05-10T12:33:37;4.67;;;3.47;;
3718;SDS011;1875;52.492;6.860;2023-05-10T12:36:08;5.37;;;4.20;;
3718;SDS011;1875;52.492;6.860;2023-05-10T12:38:36;10.53;;;4.37;;
3718;SDS011;1875;52.492;6.860;2023-05-10T12:41:06;6.40;;;4.17;;
3718;SDS011;1875;52.492;6.860;2023-05-10T12:43:35;12.17;;;5.40;;
3718;SDS011;1875;52.492;6.860;2023-05-10T12:46:07;5.93;;;4.40;;
3718;SDS011;1875;52.492;6.860;2023-05-10T12:48:36;6.27;;;4.20;;
3718;SDS011;1875;52.492;6.860;2023-05-10T12:51:05;6.13;;;4.23;;
3718;SDS011;1875;52.492;6.860;2023-05-10T12:53:35;6.00;;;4.50;;
3718;SDS011;1875;52.492;6.860;2023-05-10T12:56:03;6.80;;;5.13;;
3718;SDS011;1875;52.492;6.860;2023-05-10T12:58:31;6.13;;;4.37;;
3718;SDS011;1875;52.492;6.860;2023-05-10T13:01:01;5.27;;;4.40;;
3718;SDS011;1875;52.492;6.860;2023-05-10T13:03:31;8.80;;;4.40;;
3718;SDS011;1875;52.492;6.860;2023-05-10T13:05:59;5.53;;;4.50;;
3718;SDS011;1875;52.492;6.860;2023-05-10T13:08:27;7.47;;;4.70;;
3718;SDS011;1875;52.492;6.860;2023-05-10T13:10:59;4.77;;;4.03;;
3718;SDS011;1875;52.492;6.860;2023-05-10T13:13:27;7.93;;;5.27;;
3718;SDS011;1875;52.492;6.860;2023-05-10T13:15:54;9.43;;;6.43;;
3718;SDS011;1875;52.492;6.860;2023-05-10T13:18:22;12.73;;;6.57;;
3718;SDS011;1875;52.492;6.860;2023-05-10T13:20:52;10.20;;;5.60;;
3718;SDS011;1875;52.492;6.860;2023-05-10T13:23:21;10.33;;;6.07;;
3718;SDS011;1875;52.492;6.860;2023-05-10T13:25:49;8.00;;;5.70;;
3718;SDS011;1875;52.492;6.860;2023-05-10T13:28:17;10.70;;;6.00;;
3718;SDS011;1875;52.492;6.860;2023-05-10T13:30:44;7.10;;;5.17;;
3718;SDS011;1875;52.492;6.860;2023-05-10T13:33:12;8.80;;;5.90;;
3718;SDS011;1875;52.492;6.860;2023-05-10T13:35:40;9.90;;;6.00;;
3718;SDS011;1875;52.492;6.860;2023-05-10T13:38:09;7.83;;;5.20;;
3718;SDS011;1875;52.492;6.860;2023-05-10T13:40:37;11.53;;;6.23;;
3718;SDS011;1875;52.492;6.860;2023-05-10T13:43:05;9.47;;;5.60;;
3718;SDS011;1875;52.492;6.860;2023-05-10T13:45:32;8.47;;;5.33;;
3718;SDS011;1875;52.492;6.860;2023-05-10T13:48:00;6.03;;;4.50;;
3718;SDS011;1875;52.492;6.860;2023-05-10T13:50:28;6.30;;;5.30;;
3718;SDS011;1875;52.492;6.860;2023-05-10T13:52:56;7.37;;;5.73;;
3718;SDS011;1875;52.492;6.860;2023-05-10T13:55:25;5.97;;;4.97;;
3718;SDS011;1875;52.492;6.860;2023-05-10T13:57:53;10.97;;;4.93;;
3718;SDS011;1875;52.492;6.860;2023-05-10T14:00:21;10.13;;;6.00;;
3718;SDS011;1875;52.492;6.860;2023-05-10T14:02:48;6.03;;;4.80;;
3718;SDS011;1875;52.492;6.860;2023-05-10T14:05:16;8.50;;;5.50;;
3718;SDS011;1875;52.492;6.860;2023-05-10T14:07:50;7.60;;;5.43;;
3718;SDS011;1875;52.492;6.860;2023-05-10T14:10:18;10.17;;;6.17;;
3718;SDS011;1875;52.492;6.860;2023-05-10T14:12:47;6.90;;;5.33;;
3718;SDS011;1875;52.492;6.860;2023-05-10T14:15:15;10.63;;;5.97;;
3718;SDS011;1875;52.492;6.860;2023-05-10T14:17:43;10.93;;;5.87;;
3718;SDS011;1875;52.492;6.860;2023-05-10T14:20:11;11.33;;;6.40;;
3718;SDS011;1875;52.492;6.860;2023-05-10T14:22:39;8.80;;;5.13;;
3718;SDS011;1875;52.492;6.860;2023-05-10T14:25:07;12.17;;;5.77;;
3718;SDS011;1875;52.492;6.860;2023-05-10T14:27:35;8.70;;;6.07;;
3718;SDS011;1875;52.492;6.860;2023-05-10T14:30:05;9.33;;;6.53;;
3718;SDS011;1875;52.492;6.860;2023-05-10T14:32:34;7.13;;;5.40;;
3718;SDS011;1875;52.492;6.860;2023-05-10T14:35:03;10.43;;;6.37;;
3718;SDS011;1875;52.492;6.860;2023-05-10T14:37:32;9.30;;;6.00;;
3718;SDS011;1875;52.492;6.860;2023-05-10T14:39:59;9.77;;;6.30;;
3718;SDS011;1875;52.492;6.860;2023-05-10T14:42:27;9.87;;;6.90;;
3718;SDS011;1875;52.492;6.860;2023-05-10T14:44:55;8.00;;;6.73;;
3718;SDS011;1875;52.492;6.860;2023-05-10T14:47:24;12.03;;;7.10;;
3718;SDS011;1875;52.492;6.860;2023-05-10T14:49:52;13.77;;;6.80;;
3718;SDS011;1875;52.492;6.860;2023-05-10T14:52:20;11.93;;;7.27;;
3718;SDS011;1875;52.492;6.860;2023-05-10T14:54:47;9.40;;;6.63;;
3718;SDS011;1875;52.492;6.860;2023-05-10T14:57:15;10.07;;;7.13;;
3718;SDS011;1875;52.492;6.860;2023-05-10T14:59:43;10.27;;;7.57;;
3718;SDS011;1875;52.492;6.860;2023-05-10T15:02:11;10.80;;;7.63;;
3718;SDS011;1875;52.492;6.860;2023-05-10T15:04:41;14.57;;;6.30;;
3718;SDS011;1875;52.492;6.860;2023-05-10T15:07:09;8.00;;;4.37;;
3718;SDS011;1875;52.492;6.860;2023-05-10T15:09:40;6.93;;;5.33;;
3718;SDS011;1875;52.492;6.860;2023-05-10T15:12:08;8.23;;;5.17;;
3718;SDS011;1875;52.492;6.860;2023-05-10T15:14:35;6.93;;;5.53;;